createdAt,value
2018-10-06T00:02:57.545Z,12.77
2018-10-06T00:07:01.803Z,12.80
2018-10-06T00:11:06.437Z,12.50
2018-10-06T00:15:11.572Z,12.57
2018-10-06T00:19:15.766Z,12.63
2018-10-06T00:23:20.970Z,13.20
2018-10-06T00:27:26.508Z,12.70
2018-10-06T00:31:30.801Z,12.43
2018-10-06T00:35:35.221Z,13.10
2018-10-06T00:39:39.356Z,12.87
2018-10-06T00:43:44.138Z,13.33
2018-10-06T00:47:48.280Z,13.37
2018-10-06T00:51:53.077Z,12.90
2018-10-06T00:55:57.595Z,12.87
2018-10-06T01:00:01.793Z,13.30
2018-10-06T01:04:06.013Z,13.57
2018-10-06T01:08:11.101Z,13.33
2018-10-06T01:12:15.315Z,13.67
2018-10-06T01:16:19.899Z,14.30
2018-10-06T01:20:24.181Z,13.20
2018-10-06T01:24:29.556Z,14.03
2018-10-06T01:28:34.899Z,13.57
2018-10-06T01:32:39.245Z,13.87
2018-10-06T01:36:43.441Z,13.87
2018-10-06T01:40:47.932Z,14.00
2018-10-06T01:44:52.633Z,14.33
2018-10-06T01:48:56.930Z,15.10
2018-10-06T01:53:01.362Z,14.00
2018-10-06T01:57:05.725Z,14.73
2018-10-06T02:01:09.847Z,14.13
2018-10-06T02:05:14.186Z,14.07
2018-10-06T02:09:18.540Z,13.80
2018-10-06T02:13:22.936Z,15.03
2018-10-06T02:17:27.299Z,16.63
2018-10-06T02:21:35.330Z,15.00
2018-10-06T02:25:39.561Z,15.30
2018-10-06T02:29:44.217Z,14.90
2018-10-06T02:33:48.889Z,14.63
2018-10-06T02:37:54.037Z,14.60
2018-10-06T02:41:58.682Z,14.43
2018-10-06T02:46:03.608Z,14.27
2018-10-06T02:50:08.623Z,14.20
2018-10-06T02:54:12.964Z,13.67
2018-10-06T02:58:17.128Z,13.43
2018-10-06T03:02:21.601Z,13.97
2018-10-06T03:06:26.881Z,14.37
2018-10-06T03:10:33.544Z,14.20
2018-10-06T03:14:38.147Z,14.50
2018-10-06T03:18:43.184Z,14.30
2018-10-06T03:22:50.022Z,14.27
2018-10-06T03:26:54.422Z,14.27
2018-10-06T03:30:58.883Z,14.57
2018-10-06T03:35:03.852Z,14.60
2018-10-06T03:39:08.771Z,15.07
2018-10-06T03:43:13.091Z,16.03
2018-10-06T03:47:17.367Z,15.33
2018-10-06T03:51:26.779Z,15.90
2018-10-06T03:55:31.105Z,16.70
2018-10-06T03:59:35.759Z,15.33
2018-10-06T04:03:40.023Z,15.20
2018-10-06T04:07:45.360Z,16.17
2018-10-06T04:11:49.691Z,16.17
2018-10-06T04:15:54.207Z,15.87
2018-10-06T04:19:58.473Z,14.77
2018-10-06T04:24:02.869Z,16.30
2018-10-06T04:28:07.057Z,16.20
2018-10-06T04:32:11.572Z,15.77
2018-10-06T04:36:15.883Z,15.13
2018-10-06T04:40:20.681Z,15.53
2018-10-06T04:44:24.969Z,15.07
2018-10-06T04:48:29.705Z,16.27
2018-10-06T04:52:33.928Z,15.00
2018-10-06T04:56:38.130Z,15.20
2018-10-06T05:00:42.292Z,16.03
2018-10-06T05:04:46.499Z,15.77
2018-10-06T05:08:52.706Z,14.83
2018-10-06T05:12:56.998Z,15.40
2018-10-06T05:17:01.718Z,15.63
2018-10-06T05:21:05.936Z,15.57
2018-10-06T05:25:10.348Z,15.53
2018-10-06T05:29:14.497Z,15.77
2018-10-06T05:33:18.790Z,15.87
2018-10-06T05:37:29.859Z,16.17
2018-10-06T05:41:34.233Z,18.13
2018-10-06T05:45:38.587Z,16.97
2018-10-06T05:49:42.943Z,16.47
2018-10-06T05:53:48.058Z,16.03
2018-10-06T05:57:52.931Z,15.27
2018-10-06T06:01:57.760Z,15.13
2018-10-06T06:06:01.983Z,17.17
2018-10-06T06:10:06.384Z,16.33
2018-10-06T06:14:10.629Z,16.60
2018-10-06T06:18:15.048Z,15.03
2018-10-06T06:22:21.982Z,15.17
2018-10-06T06:26:27.338Z,15.30
2018-10-06T06:30:32.788Z,15.83
2018-10-06T06:34:37.360Z,15.00
2018-10-06T06:38:41.663Z,14.63
2018-10-06T06:42:45.880Z,14.87
2018-10-06T06:46:50.922Z,15.03
2018-10-06T06:51:00.249Z,14.47
2018-10-06T06:55:04.839Z,14.37
2018-10-06T06:59:09.047Z,13.70
2018-10-06T07:03:14.243Z,14.70
2018-10-06T07:07:19.497Z,14.30
2018-10-06T07:11:25.989Z,13.27
2018-10-06T07:15:30.659Z,12.57
2018-10-06T07:19:36.007Z,12.30
2018-10-06T07:23:40.116Z,13.00
2018-10-06T07:27:44.459Z,12.40
2018-10-06T07:31:48.718Z,12.80
2018-10-06T07:35:53.057Z,12.57
2018-10-06T07:39:57.277Z,11.73
2018-10-06T07:44:01.759Z,12.00
2018-10-06T07:48:05.940Z,11.80
2018-10-06T07:52:10.173Z,11.90
2018-10-06T07:56:14.535Z,12.27
2018-10-06T08:00:19.382Z,12.60
2018-10-06T08:04:23.686Z,13.70
2018-10-06T08:08:27.918Z,12.97
2018-10-06T08:12:32.097Z,12.23
2018-10-06T08:16:36.357Z,11.87
2018-10-06T08:20:40.632Z,12.27
2018-10-06T08:25:45.784Z,12.17
2018-10-06T08:29:52.947Z,12.77
2018-10-06T08:33:57.397Z,11.87
2018-10-06T08:38:01.560Z,13.43
2018-10-06T08:42:05.843Z,14.53
2018-10-06T08:46:09.876Z,13.37
2018-10-06T08:50:14.069Z,13.53
2018-10-06T08:54:19.539Z,13.90
2018-10-06T08:58:23.900Z,13.70
2018-10-06T09:02:28.226Z,13.17
2018-10-06T09:06:32.413Z,12.70
2018-10-06T09:10:36.763Z,13.40
2018-10-06T09:14:40.973Z,13.80
2018-10-06T09:18:45.160Z,13.83
2018-10-06T09:22:49.672Z,13.60
2018-10-06T09:26:54.081Z,14.23
2018-10-06T09:30:58.439Z,14.00
2018-10-06T09:35:02.617Z,14.23
2018-10-06T09:39:08.008Z,12.70
2018-10-06T09:43:12.191Z,14.17
2018-10-06T09:47:16.284Z,14.87
2018-10-06T09:51:20.547Z,14.90
2018-10-06T09:55:25.415Z,14.80
2018-10-06T09:59:29.842Z,15.57
2018-10-06T10:03:39.515Z,15.60
2018-10-06T10:12:54.383Z,15.80
2018-10-06T10:16:58.585Z,16.03
2018-10-06T10:21:02.704Z,16.37
2018-10-06T10:25:07.037Z,15.83
2018-10-06T10:29:11.232Z,15.97
2018-10-06T10:33:15.468Z,16.13
2018-10-06T10:37:19.711Z,16.83
2018-10-06T10:41:24.215Z,17.10
2018-10-06T10:45:28.511Z,17.53
2018-10-06T10:49:33.026Z,17.70
2018-10-06T10:53:37.273Z,18.90
2018-10-06T10:57:41.411Z,18.10
2018-10-06T11:01:45.692Z,19.57
2018-10-06T11:05:50.387Z,20.17
2018-10-06T11:09:54.767Z,19.37
2018-10-06T11:13:59.039Z,20.33
2018-10-06T11:18:03.167Z,23.10
2018-10-06T11:22:07.242Z,21.70
2018-10-06T11:26:11.604Z,20.83
2018-10-06T11:30:15.701Z,21.67
2018-10-06T11:34:19.828Z,20.10
2018-10-06T11:38:24.072Z,20.90
2018-10-06T11:42:28.764Z,19.10
2018-10-06T11:46:32.907Z,19.50
2018-10-06T11:50:38.449Z,20.50
2018-10-06T11:54:42.794Z,19.37
2018-10-06T11:58:46.976Z,17.83
2018-10-06T12:02:52.015Z,16.33
2018-10-06T12:06:56.428Z,15.57
2018-10-06T12:11:00.556Z,15.80
2018-10-06T12:15:04.853Z,14.60
2018-10-06T12:19:08.953Z,13.70
2018-10-06T12:23:13.227Z,13.07
2018-10-06T12:27:17.508Z,12.43
2018-10-06T12:31:22.210Z,12.63
2018-10-06T12:35:29.591Z,12.43
2018-10-06T12:39:35.854Z,11.63
2018-10-06T12:43:40.851Z,8.33
2018-10-06T12:47:45.637Z,7.67
2018-10-06T12:51:50.064Z,9.40
2018-10-06T12:55:54.497Z,8.57
2018-10-06T12:59:58.576Z,6.23
2018-10-06T13:04:02.643Z,5.37
2018-10-06T13:08:06.718Z,6.73
2018-10-06T13:12:11.689Z,6.83
2018-10-06T13:16:16.086Z,7.23
2018-10-06T13:20:20.523Z,7.93
2018-10-06T13:24:24.571Z,9.60
2018-10-06T13:28:28.723Z,8.43
2018-10-06T13:32:32.860Z,9.87
2018-10-06T13:36:36.930Z,9.60
2018-10-06T13:40:41.076Z,9.60
2018-10-06T13:44:45.243Z,9.87
2018-10-06T13:48:49.435Z,10.33
2018-10-06T13:52:53.571Z,9.33
2018-10-06T13:56:57.687Z,9.87
2018-10-06T14:01:02.008Z,8.30
2018-10-06T14:05:06.219Z,7.63
2018-10-06T14:09:11.194Z,6.63
2018-10-06T14:13:15.589Z,5.93
2018-10-06T14:17:19.839Z,5.67
2018-10-06T14:21:23.923Z,6.10
2018-10-06T14:25:28.087Z,6.07
2018-10-06T14:29:32.187Z,6.80
2018-10-06T14:33:36.415Z,6.27
2018-10-06T14:37:41.701Z,6.70
2018-10-06T14:41:45.916Z,5.97
2018-10-06T14:45:49.979Z,8.97
2018-10-06T14:49:54.090Z,6.70
2018-10-06T14:53:58.256Z,6.73
2018-10-06T14:58:02.315Z,5.43
2018-10-06T15:02:06.383Z,5.47
2018-10-06T15:06:11.781Z,4.80
2018-10-06T15:10:15.981Z,4.90
2018-10-06T15:14:20.225Z,5.73
2018-10-06T15:18:24.202Z,5.87
2018-10-06T15:22:28.097Z,6.80
2018-10-06T15:26:32.061Z,8.30
2018-10-06T15:30:36.174Z,6.73
2018-10-06T15:34:40.464Z,7.10
2018-10-06T15:38:44.371Z,7.23
2018-10-06T15:42:48.278Z,7.43
2018-10-06T15:46:52.021Z,11.37
2018-10-06T15:50:55.888Z,8.37
2018-10-06T15:54:59.736Z,8.23
2018-10-06T15:59:03.588Z,9.37
2018-10-06T16:03:07.470Z,8.90
2018-10-06T16:07:11.646Z,9.90
2018-10-06T16:11:15.819Z,9.47
2018-10-06T16:15:19.997Z,13.40
2018-10-06T16:19:24.398Z,11.37
2018-10-06T16:23:28.423Z,12.17
2018-10-06T16:27:32.583Z,12.43
2018-10-06T16:31:36.735Z,14.00
2018-10-06T16:35:40.871Z,14.50
2018-10-06T16:39:45.130Z,15.50
2018-10-06T16:43:49.210Z,16.17
2018-10-06T16:47:53.512Z,16.90
2018-10-06T16:51:57.540Z,17.13
2018-10-06T16:56:01.574Z,17.03
2018-10-06T17:00:05.774Z,16.97
2018-10-06T17:04:09.973Z,17.63
2018-10-06T17:08:14.233Z,17.50
2018-10-06T17:12:18.449Z,16.60
2018-10-06T17:16:22.591Z,16.80
2018-10-06T17:20:26.806Z,17.77
2018-10-06T17:24:30.875Z,17.77
2018-10-06T17:28:35.036Z,17.77
2018-10-06T17:32:40.180Z,18.53
2018-10-06T17:36:44.391Z,19.27
2018-10-06T17:40:48.566Z,21.40
2018-10-06T17:44:52.769Z,20.97
2018-10-06T17:48:56.778Z,22.70
2018-10-06T17:53:00.921Z,23.80
2018-10-06T17:57:04.982Z,24.53
2018-10-06T18:01:09.054Z,25.13
2018-10-06T18:05:13.385Z,26.43
2018-10-06T18:09:17.684Z,30.57
2018-10-06T18:13:21.875Z,31.73
2018-10-06T18:17:25.920Z,32.93
2018-10-06T18:21:30.110Z,36.80
2018-10-06T18:25:34.135Z,37.20
2018-10-06T18:29:38.346Z,39.07
2018-10-06T18:33:42.394Z,39.50
2018-10-06T18:37:46.521Z,41.57
2018-10-06T18:41:50.538Z,40.53
2018-10-06T18:45:54.646Z,41.30
2018-10-06T18:49:58.716Z,41.37
2018-10-06T18:54:02.809Z,44.70
2018-10-06T18:58:06.904Z,43.73
2018-10-06T19:02:11.716Z,43.63
2018-10-06T19:06:15.986Z,40.77
2018-10-06T19:10:20.156Z,42.23
2018-10-06T19:14:24.118Z,41.13
2018-10-06T19:18:28.260Z,40.97
2018-10-06T19:22:32.705Z,42.67
2018-10-06T19:26:36.795Z,44.90
2018-10-06T19:30:41.153Z,45.03
2018-10-06T19:34:45.494Z,44.67
2018-10-06T19:38:49.654Z,47.33
2018-10-06T19:42:53.721Z,46.63
2018-10-06T19:46:58.278Z,46.93
2018-10-06T19:51:02.339Z,48.30
2018-10-06T19:55:06.428Z,44.90
2018-10-06T19:59:10.760Z,42.30
2018-10-06T20:03:15.193Z,41.77
2018-10-06T20:07:19.394Z,40.97
2018-10-06T20:11:23.544Z,37.00
2018-10-06T20:15:27.585Z,37.87
2018-10-06T20:19:31.827Z,36.63
2018-10-06T20:23:35.882Z,36.83
2018-10-06T20:27:40.007Z,36.27
2018-10-06T20:31:44.225Z,36.03
2018-10-06T20:35:48.377Z,36.27
2018-10-06T20:39:52.706Z,35.80
2018-10-06T20:43:57.102Z,34.47
2018-10-06T20:48:01.498Z,33.77
2018-10-06T20:52:05.723Z,33.57
2018-10-06T20:56:09.866Z,32.80
2018-10-06T21:00:14.075Z,31.40
2018-10-06T21:04:18.210Z,28.60
2018-10-06T21:08:22.326Z,23.97
2018-10-06T21:12:26.378Z,23.53
2018-10-06T21:16:30.459Z,22.23
2018-10-06T21:20:34.862Z,22.73
2018-10-06T21:24:39.065Z,19.37
2018-10-06T21:28:43.260Z,15.00
2018-10-06T21:32:47.466Z,11.57
2018-10-06T21:36:51.591Z,9.60
2018-10-06T21:40:55.983Z,8.80
2018-10-06T21:45:00.197Z,8.87
2018-10-06T21:49:04.343Z,9.33
2018-10-06T21:53:08.462Z,7.33
2018-10-06T21:57:12.680Z,6.13
2018-10-06T22:01:16.759Z,4.73
2018-10-06T22:05:20.924Z,3.80
2018-10-06T22:09:24.979Z,2.73
2018-10-06T22:13:29.727Z,2.50
2018-10-06T22:17:33.824Z,1.90
2018-10-06T22:21:37.927Z,1.87
2018-10-06T22:25:42.744Z,1.50
2018-10-06T22:29:46.847Z,1.60
2018-10-06T22:33:50.904Z,2.40
2018-10-06T22:37:54.947Z,0.93
2018-10-06T22:42:00.958Z,1.37
2018-10-06T22:46:05.045Z,0.80
2018-10-06T22:50:09.462Z,1.27
2018-10-06T22:54:13.603Z,1.40
2018-10-06T22:58:17.821Z,1.47
2018-10-06T23:02:21.868Z,1.60
2018-10-06T23:06:26.058Z,1.43
2018-10-06T23:10:30.254Z,1.47
2018-10-06T23:14:34.386Z,1.90
2018-10-06T23:18:38.600Z,1.93
2018-10-06T23:22:43.286Z,1.60
2018-10-06T23:26:47.520Z,1.67
2018-10-06T23:30:51.647Z,1.57
2018-10-06T23:34:56.279Z,1.20
2018-10-06T23:39:00.488Z,1.03
2018-10-06T23:43:04.538Z,1.07
2018-10-06T23:47:08.959Z,1.30
2018-10-06T23:51:13.258Z,0.93
2018-10-06T23:55:17.407Z,1.57
2018-10-06T23:59:21.443Z,1.63
